createdAt,value
2018-08-07T00:00:33.458Z,19.29
2018-08-07T00:03:02.189Z,19.29
2018-08-07T00:05:30.918Z,19.37
2018-08-07T00:07:59.654Z,19.29
2018-08-07T00:10:28.349Z,19.23
2018-08-07T00:12:57.077Z,19.21
2018-08-07T00:15:27.562Z,19.22
2018-08-07T00:17:56.308Z,19.19
2018-08-07T00:20:25.057Z,19.13
2018-08-07T00:22:53.766Z,19.08
2018-08-07T00:25:22.470Z,19.08
2018-08-07T00:27:51.200Z,19.18
2018-08-07T00:30:19.893Z,19.13
2018-08-07T00:32:48.622Z,19.07
2018-08-07T00:35:18.717Z,19.11
2018-08-07T00:37:47.842Z,19.02
2018-08-07T00:40:17.632Z,19.09
2018-08-07T00:42:46.835Z,18.99
2018-08-07T00:45:21.327Z,19.11
2018-08-07T00:47:50.550Z,19.09
2018-08-07T00:50:20.905Z,18.99
2018-08-07T00:52:50.587Z,18.97
2018-08-07T00:55:19.959Z,19.13
2018-08-07T00:57:49.261Z,19.08
2018-08-07T01:00:18.013Z,19.03
2018-08-07T01:02:46.748Z,19.09
2018-08-07T01:05:17.380Z,19.19
2018-08-07T01:07:46.092Z,19.14
2018-08-07T01:10:16.500Z,19.07
2018-08-07T01:12:45.200Z,18.92
2018-08-07T01:15:16.190Z,18.87
2018-08-07T01:17:45.442Z,18.84
2018-08-07T01:20:18.540Z,18.82
2018-08-07T01:22:47.245Z,18.85
2018-08-07T01:25:20.988Z,18.92
2018-08-07T01:27:49.688Z,18.88
2018-08-07T01:30:28.846Z,18.85
2018-08-07T01:32:57.855Z,18.77
2018-08-07T01:35:27.625Z,18.74
2018-08-07T01:37:56.348Z,18.72
2018-08-07T01:40:25.153Z,18.66
2018-08-07T01:42:53.901Z,18.60
2018-08-07T01:45:22.637Z,18.64
2018-08-07T01:47:51.345Z,18.71
2018-08-07T01:50:20.075Z,18.83
2018-08-07T01:52:48.794Z,18.89
2018-08-07T01:55:25.977Z,18.84
2018-08-07T01:57:54.664Z,18.85
2018-08-07T02:00:23.522Z,18.97
2018-08-07T02:02:52.448Z,18.86
2018-08-07T02:05:21.168Z,18.80
2018-08-07T02:07:49.852Z,18.71
2018-08-07T02:10:19.488Z,18.60
2018-08-07T02:12:48.190Z,18.56
2018-08-07T02:15:17.312Z,18.56
2018-08-07T02:17:46.009Z,18.57
2018-08-07T02:20:15.953Z,18.62
2018-08-07T02:22:45.181Z,18.57
2018-08-07T02:25:16.209Z,18.57
2018-08-07T02:27:45.791Z,18.59
2018-08-07T02:30:15.438Z,18.59
2018-08-07T02:32:44.252Z,18.63
2018-08-07T02:35:14.363Z,18.77
2018-08-07T02:37:44.052Z,18.81
2018-08-07T02:40:14.025Z,18.85
2018-08-07T02:42:43.442Z,18.93
2018-08-07T02:45:15.175Z,18.84
2018-08-07T02:47:44.921Z,18.71
2018-08-07T02:50:16.090Z,18.63
2018-08-07T02:52:44.830Z,18.48
2018-08-07T02:55:13.570Z,18.53
2018-08-07T02:57:42.857Z,18.54
2018-08-07T03:00:16.970Z,18.45
2018-08-07T03:02:46.109Z,18.39
2018-08-07T03:05:14.905Z,18.50
2018-08-07T03:07:44.029Z,18.41
2018-08-07T03:10:12.840Z,18.36
2018-08-07T03:12:41.562Z,18.35
2018-08-07T03:15:15.857Z,18.35
2018-08-07T03:17:45.578Z,18.27
2018-08-07T03:20:14.398Z,18.23
2018-08-07T03:22:43.113Z,18.27
2018-08-07T03:25:12.988Z,18.48
2018-08-07T03:27:42.353Z,18.55
2018-08-07T03:30:13.903Z,18.88
2018-08-07T03:32:42.914Z,18.89
2018-08-07T03:35:11.650Z,18.91
2018-08-07T03:37:40.829Z,18.86
2018-08-07T03:40:12.902Z,18.86
2018-08-07T03:42:41.601Z,18.85
2018-08-07T03:45:12.402Z,18.93
2018-08-07T03:47:41.154Z,19.13
2018-08-07T03:50:10.671Z,19.16
2018-08-07T03:52:39.424Z,19.26
2018-08-07T03:55:11.668Z,19.46
2018-08-07T03:57:41.057Z,20.34
2018-08-07T04:00:16.271Z,21.30
2018-08-07T04:02:45.168Z,22.14
2018-08-07T04:05:13.986Z,23.03
2018-08-07T04:07:42.885Z,23.71
2018-08-07T04:10:13.782Z,24.20
2018-08-07T04:12:42.524Z,24.71
2018-08-07T04:15:13.002Z,25.22
2018-08-07T04:17:42.226Z,25.56
2018-08-07T04:20:13.479Z,26.16
2018-08-07T04:22:42.244Z,26.81
2018-08-07T04:25:11.079Z,27.07
2018-08-07T04:27:39.821Z,27.35
2018-08-07T04:30:10.852Z,28.01
2018-08-07T04:32:39.884Z,28.57
2018-08-07T04:35:08.619Z,29.00
2018-08-07T04:37:37.525Z,29.14
2018-08-07T04:40:07.162Z,29.60
2018-08-07T04:42:39.005Z,30.25
2018-08-07T04:45:12.102Z,30.90
2018-08-07T04:47:40.868Z,31.66
2018-08-07T04:50:10.267Z,31.88
2018-08-07T04:52:39.299Z,32.57
2018-08-07T04:55:08.953Z,33.01
2018-08-07T04:57:37.737Z,33.30
2018-08-07T05:00:10.301Z,33.00
2018-08-07T05:02:39.162Z,32.67
2018-08-07T05:05:14.493Z,32.77
2018-08-07T05:07:43.286Z,32.94
2018-08-07T05:10:14.460Z,33.11
2018-08-07T05:12:44.024Z,33.49
2018-08-07T05:15:13.090Z,33.70
2018-08-07T05:17:42.913Z,33.56
2018-08-07T05:20:11.693Z,34.14
2018-08-07T05:22:40.848Z,34.25
2018-08-07T05:25:11.026Z,34.20
2018-08-07T05:27:39.921Z,33.64
2018-08-07T05:30:10.471Z,33.69
2018-08-07T05:32:39.206Z,33.55
2018-08-07T05:35:08.736Z,33.97
2018-08-07T05:37:37.619Z,34.23
2018-08-07T05:40:06.999Z,34.51
2018-08-07T05:42:35.768Z,34.81
2018-08-07T05:45:05.558Z,35.15
2018-08-07T05:47:34.313Z,34.93
2018-08-07T05:50:03.195Z,34.56
2018-08-07T05:52:31.885Z,35.20
2018-08-07T05:55:00.639Z,36.05
2018-08-07T05:57:29.493Z,37.06
2018-08-07T05:59:58.224Z,37.41
2018-08-07T06:02:26.961Z,37.76
2018-08-07T06:04:56.082Z,37.82
2018-08-07T06:07:24.790Z,38.28
2018-08-07T06:09:53.545Z,38.77
2018-08-07T06:12:22.274Z,38.00
2018-08-07T06:14:51.217Z,38.88
2018-08-07T06:17:20.025Z,39.40
2018-08-07T06:19:48.808Z,39.70
2018-08-07T06:22:17.570Z,40.19
2018-08-07T06:24:46.295Z,40.12
2018-08-07T06:27:15.154Z,39.48
2018-08-07T06:29:43.884Z,39.79
2018-08-07T06:32:12.665Z,40.08
2018-08-07T06:34:41.419Z,40.04
2018-08-07T06:37:10.121Z,39.75
2018-08-07T06:39:38.813Z,39.82
2018-08-07T06:42:07.588Z,40.23
2018-08-07T06:44:39.401Z,40.19
2018-08-07T06:47:08.336Z,40.19
2018-08-07T06:49:37.071Z,40.37
2018-08-07T06:52:05.798Z,40.86
2018-08-07T06:54:34.554Z,40.61
2018-08-07T06:57:03.469Z,40.90
2018-08-07T06:59:32.642Z,40.42
2018-08-07T07:02:01.370Z,40.81
2018-08-07T07:04:30.211Z,40.65
2018-08-07T07:06:58.968Z,40.88
2018-08-07T07:09:27.761Z,42.01
2018-08-07T07:11:56.566Z,41.96
2018-08-07T07:14:25.301Z,41.57
2018-08-07T07:16:54.020Z,41.75
2018-08-07T07:19:22.754Z,42.01
2018-08-07T07:21:51.514Z,41.79
2018-08-07T07:24:20.304Z,41.57
2018-08-07T07:26:49.051Z,42.03
2018-08-07T07:29:17.815Z,41.72
2018-08-07T07:31:46.582Z,41.75
2018-08-07T07:34:15.357Z,41.94
2018-08-07T07:36:44.133Z,42.28
2018-08-07T07:39:12.886Z,42.20
2018-08-07T07:41:41.598Z,42.22
2018-08-07T07:44:10.412Z,42.60
2018-08-07T07:46:39.192Z,42.47
2018-08-07T07:49:08.355Z,41.96
2018-08-07T07:51:37.092Z,41.85
2018-08-07T07:54:05.916Z,41.63
2018-08-07T07:56:34.884Z,41.74
2018-08-07T07:59:03.638Z,41.37
2018-08-07T08:01:32.355Z,41.27
2018-08-07T08:04:01.085Z,41.63
2018-08-07T08:06:30.378Z,41.95
2018-08-07T08:08:59.243Z,42.25
2018-08-07T08:11:29.717Z,41.91
2018-08-07T08:14:00.272Z,41.37
2018-08-07T08:16:31.559Z,41.89
2018-08-07T08:19:04.234Z,42.11
2018-08-07T08:21:35.229Z,42.36
2018-08-07T08:24:06.026Z,41.87
2018-08-07T08:26:37.486Z,41.51
2018-08-07T08:29:09.300Z,41.51
2018-08-07T08:31:40.814Z,41.54
2018-08-07T08:34:12.259Z,41.05
2018-08-07T08:36:44.070Z,40.96
2018-08-07T08:39:18.591Z,40.22
2018-08-07T08:41:50.563Z,40.00
2018-08-07T08:44:22.317Z,38.48
2018-08-07T08:46:51.219Z,39.33
2018-08-07T08:49:20.078Z,40.60
2018-08-07T08:51:48.822Z,40.29
2018-08-07T08:54:17.559Z,40.74
2018-08-07T08:56:46.411Z,39.95
2018-08-07T08:59:15.257Z,40.82
2018-08-07T09:01:43.985Z,40.87
2018-08-07T09:04:12.738Z,41.27
2018-08-07T09:06:41.472Z,39.78
2018-08-07T09:09:12.641Z,38.54
2018-08-07T09:11:41.526Z,39.72
2018-08-07T09:14:11.377Z,39.51
2018-08-07T09:16:40.497Z,40.33
2018-08-07T09:19:09.329Z,40.79
2018-08-07T09:21:38.660Z,42.14
2018-08-07T09:24:07.919Z,42.17
2018-08-07T09:26:36.682Z,41.84
2018-08-07T09:29:05.490Z,41.46
2018-08-07T09:31:34.555Z,41.82
2018-08-07T09:34:03.297Z,41.73
2018-08-07T09:36:32.051Z,42.38
2018-08-07T09:39:00.777Z,42.74
2018-08-07T09:41:29.531Z,42.88
2018-08-07T09:43:58.276Z,42.66
2018-08-07T09:46:27.053Z,42.76
2018-08-07T09:48:55.829Z,43.56
2018-08-07T09:51:24.541Z,43.64
2018-08-07T09:53:53.285Z,44.72
2018-08-07T09:56:22.015Z,44.10
2018-08-07T09:58:50.773Z,43.98
2018-08-07T10:01:24.641Z,42.45
2018-08-07T10:03:53.345Z,42.16
2018-08-07T10:06:22.246Z,42.62
2018-08-07T10:08:50.985Z,41.34
2018-08-07T10:11:19.755Z,42.32
2018-08-07T10:13:48.498Z,42.03
2018-08-07T10:16:17.250Z,41.53
2018-08-07T10:18:45.969Z,42.31
2018-08-07T10:21:14.679Z,42.11
2018-08-07T10:23:43.401Z,40.44
2018-08-07T10:26:12.125Z,40.44
2018-08-07T10:28:40.854Z,42.01
2018-08-07T10:31:09.847Z,42.56
2018-08-07T10:33:38.758Z,43.28
2018-08-07T10:36:07.556Z,43.48
2018-08-07T10:38:36.330Z,42.08
2018-08-07T10:41:05.217Z,41.82
2018-08-07T10:43:33.963Z,41.60
2018-08-07T10:46:02.775Z,42.40
2018-08-07T10:48:31.589Z,43.65
2018-08-07T10:51:00.592Z,43.95
2018-08-07T10:53:29.423Z,42.70
2018-08-07T10:55:58.151Z,41.47
2018-08-07T10:58:26.980Z,41.69
2018-08-07T11:00:55.745Z,41.81
2018-08-07T11:03:24.499Z,42.68
2018-08-07T11:05:53.452Z,41.63
2018-08-07T11:08:22.213Z,43.27
2018-08-07T11:10:51.008Z,43.09
2018-08-07T11:13:19.757Z,42.12
2018-08-07T11:15:48.487Z,39.56
2018-08-07T11:18:17.228Z,38.30
2018-08-07T11:20:45.999Z,39.75
2018-08-07T11:23:14.814Z,40.44
2018-08-07T11:25:43.573Z,40.84
2018-08-07T11:28:12.360Z,41.42
2018-08-07T11:30:41.108Z,41.84
2018-08-07T11:33:09.894Z,43.07
2018-08-07T11:35:38.651Z,43.58
2018-08-07T11:38:07.442Z,43.59
2018-08-07T11:40:36.179Z,44.94
2018-08-07T11:43:04.931Z,45.74
2018-08-07T11:45:34.109Z,46.74
2018-08-07T11:48:03.016Z,44.78
2018-08-07T11:50:32.799Z,43.95
2018-08-07T11:53:02.415Z,43.54
2018-08-07T11:55:31.601Z,43.43
2018-08-07T11:58:00.830Z,44.17
2018-08-07T12:00:32.482Z,44.36
2018-08-07T12:03:01.303Z,43.46
2018-08-07T12:05:30.080Z,42.09
2018-08-07T12:07:58.914Z,43.82
2018-08-07T12:10:27.718Z,42.80
2018-08-07T12:12:56.472Z,44.28
2018-08-07T12:15:25.965Z,44.12
2018-08-07T12:17:54.958Z,43.19
2018-08-07T12:20:23.742Z,43.43
2018-08-07T12:22:52.938Z,43.48
2018-08-07T12:25:21.934Z,44.01
2018-08-07T12:27:50.990Z,43.01
2018-08-07T12:37:07.892Z,43.82
2018-08-07T12:39:36.685Z,43.86
2018-08-07T12:42:05.552Z,43.36
2018-08-07T12:44:34.369Z,43.35
2018-08-07T12:47:03.227Z,42.80
2018-08-07T12:49:32.091Z,41.75
2018-08-07T12:52:00.809Z,42.57
2018-08-07T12:54:29.622Z,42.81
2018-08-07T12:56:58.354Z,42.43
2018-08-07T12:59:28.093Z,40.71
2018-08-07T13:01:57.088Z,39.28
2018-08-07T13:04:25.878Z,37.76
2018-08-07T13:06:54.695Z,37.60
2018-08-07T13:09:23.600Z,37.21
2018-08-07T13:11:52.565Z,37.00
2018-08-07T13:14:21.401Z,36.53
2018-08-07T13:16:50.206Z,36.15
2018-08-07T13:19:19.031Z,35.85
2018-08-07T13:21:47.816Z,35.96
2018-08-07T13:24:16.566Z,36.20
2018-08-07T13:26:45.311Z,35.92
2018-08-07T13:29:14.055Z,36.23
2018-08-07T13:31:42.858Z,36.35
2018-08-07T13:34:11.660Z,36.45
2018-08-07T13:36:40.491Z,36.48
2018-08-07T13:39:10.565Z,36.45
2018-08-07T13:41:39.321Z,36.10
2018-08-07T13:44:08.807Z,36.14
2018-08-07T13:46:37.703Z,36.07
2018-08-07T13:49:06.865Z,36.03
2018-08-07T13:51:35.641Z,36.05
2018-08-07T13:54:04.448Z,35.42
2018-08-07T13:56:33.239Z,35.04
2018-08-07T13:59:02.076Z,35.30
2018-08-07T14:01:31.372Z,35.62
2018-08-07T14:04:00.107Z,35.44
2018-08-07T14:06:28.877Z,35.59
2018-08-07T14:08:57.791Z,35.58
2018-08-07T14:11:26.569Z,35.53
2018-08-07T14:13:55.467Z,35.72
2018-08-07T14:16:24.739Z,35.53
2018-08-07T14:18:53.772Z,34.75
2018-08-07T14:21:22.993Z,33.84
2018-08-07T14:23:52.309Z,33.16
2018-08-07T14:26:21.366Z,32.65
2018-08-07T14:28:50.390Z,32.23
2018-08-07T14:31:19.594Z,31.92
2018-08-07T14:33:48.816Z,31.69
2018-08-07T14:36:18.089Z,31.60
2018-08-07T14:38:47.358Z,31.51
2018-08-07T14:41:16.693Z,31.39
2018-08-07T14:43:45.963Z,31.41
2018-08-07T14:46:15.603Z,31.37
2018-08-07T14:48:44.875Z,31.38
2018-08-07T14:51:14.232Z,31.39
2018-08-07T14:53:42.997Z,31.51
2018-08-07T14:56:11.755Z,31.46
2018-08-07T14:58:40.840Z,31.32
2018-08-07T15:01:09.587Z,31.19
2018-08-07T15:03:38.342Z,31.12
2018-08-07T15:06:07.090Z,31.07
2018-08-07T15:08:35.826Z,31.15
2018-08-07T15:11:04.759Z,31.32
2018-08-07T15:13:33.520Z,31.41
2018-08-07T15:16:02.252Z,31.47
2018-08-07T15:18:30.992Z,31.58
2018-08-07T15:20:59.730Z,31.78
2018-08-07T15:23:28.495Z,32.03
2018-08-07T15:25:57.211Z,32.09
2018-08-07T15:28:25.906Z,32.03
2018-08-07T15:30:54.868Z,31.89
2018-08-07T15:33:23.586Z,31.76
2018-08-07T15:35:52.350Z,31.65
2018-08-07T15:38:21.891Z,31.65
2018-08-07T15:40:50.582Z,31.63
2018-08-07T15:43:19.282Z,31.63
2018-08-07T15:45:49.809Z,31.51
2018-08-07T15:48:18.613Z,31.50
2018-08-07T15:50:47.354Z,31.36
2018-08-07T15:53:16.101Z,31.24
2018-08-07T15:55:44.856Z,31.12
2018-08-07T15:58:13.641Z,31.04
2018-08-07T16:00:43.624Z,30.91
2018-08-07T16:03:13.074Z,30.73
2018-08-07T16:05:41.818Z,30.59
2018-08-07T16:08:10.544Z,30.57
2018-08-07T16:10:39.267Z,30.48
2018-08-07T16:13:08.058Z,30.42
2018-08-07T16:15:36.822Z,30.31
2018-08-07T16:18:06.645Z,30.20
2018-08-07T16:20:35.398Z,30.19
2018-08-07T16:23:04.117Z,30.08
2018-08-07T16:25:32.982Z,29.98
2018-08-07T16:28:01.715Z,29.90
2018-08-07T16:30:30.519Z,29.79
2018-08-07T16:32:59.294Z,29.75
2018-08-07T16:35:28.107Z,29.71
2018-08-07T16:37:56.868Z,29.64
2018-08-07T16:40:25.961Z,29.50
2018-08-07T16:42:55.173Z,29.44
2018-08-07T16:45:24.784Z,29.37
2018-08-07T16:47:56.750Z,29.27
2018-08-07T16:50:29.808Z,29.04
2018-08-07T16:53:01.473Z,28.92
2018-08-07T16:55:34.224Z,28.85
2018-08-07T16:58:03.132Z,28.77
2018-08-07T17:00:32.029Z,28.66
2018-08-07T17:03:00.787Z,28.62
2018-08-07T17:05:29.564Z,28.56
2018-08-07T17:07:58.392Z,28.45
2018-08-07T17:10:29.095Z,28.39
2018-08-07T17:12:57.881Z,28.19
2018-08-07T17:15:26.658Z,28.01
2018-08-07T17:17:55.461Z,27.82
2018-08-07T17:20:24.308Z,27.67
2018-08-07T17:22:53.594Z,27.48
2018-08-07T17:25:23.216Z,27.42
2018-08-07T17:27:52.076Z,27.36
2018-08-07T17:30:22.503Z,27.22
2018-08-07T17:32:51.297Z,27.12
2018-08-07T17:35:21.450Z,27.07
2018-08-07T17:37:51.613Z,27.00
2018-08-07T17:40:21.738Z,26.95
2018-08-07T17:42:50.469Z,26.89
2018-08-07T17:45:19.643Z,26.76
2018-08-07T17:47:48.542Z,26.61
2018-08-07T17:50:18.917Z,26.54
2018-08-07T17:52:47.696Z,26.51
2018-08-07T17:55:16.628Z,26.43
2018-08-07T17:57:45.565Z,26.27
2018-08-07T18:00:18.949Z,26.14
2018-08-07T18:02:47.699Z,25.98
2018-08-07T18:05:16.575Z,25.90
2018-08-07T18:07:47.061Z,25.74
2018-08-07T18:10:17.394Z,25.67
2018-08-07T18:12:46.253Z,25.65
2018-08-07T18:15:16.403Z,25.56
2018-08-07T18:17:49.793Z,25.53
2018-08-07T18:20:21.666Z,25.42
2018-08-07T18:22:51.636Z,25.36
2018-08-07T18:25:20.397Z,25.30
2018-08-07T18:27:49.191Z,25.22
2018-08-07T18:30:21.907Z,25.03
2018-08-07T18:32:50.669Z,24.99
2018-08-07T18:35:22.706Z,24.88
2018-08-07T18:37:51.521Z,24.85
2018-08-07T18:40:20.407Z,24.76
2018-08-07T18:42:49.630Z,24.69
2018-08-07T18:45:18.343Z,24.65
2018-08-07T18:47:47.498Z,24.57
2018-08-07T18:50:18.041Z,24.52
2018-08-07T18:52:46.757Z,24.45
2018-08-07T18:55:15.778Z,24.38
2018-08-07T18:57:45.547Z,24.32
2018-08-07T19:00:17.188Z,24.24
2018-08-07T19:02:45.936Z,24.14
2018-08-07T19:05:18.094Z,24.00
2018-08-07T19:07:46.890Z,23.98
2018-08-07T19:10:15.952Z,23.96
2018-08-07T19:12:45.561Z,23.90
2018-08-07T19:15:21.833Z,23.85
2018-08-07T19:17:50.691Z,23.80
2018-08-07T19:20:21.043Z,23.79
2018-08-07T19:22:50.289Z,23.69
2018-08-07T19:25:19.677Z,23.63
2018-08-07T19:27:48.491Z,23.57
2018-08-07T19:30:18.738Z,23.55
2018-08-07T19:32:47.453Z,23.50
2018-08-07T19:35:16.237Z,23.41
2018-08-07T19:37:45.002Z,23.35
2018-08-07T19:40:15.481Z,23.30
2018-08-07T19:42:45.057Z,23.27
2018-08-07T19:45:14.232Z,23.19
2018-08-07T19:47:43.664Z,23.06
2018-08-07T19:50:13.797Z,22.95
2018-08-07T19:52:42.649Z,22.87
2018-08-07T19:55:15.859Z,22.83
2018-08-07T19:57:44.956Z,22.76
2018-08-07T20:00:21.271Z,22.70
2018-08-07T20:02:50.550Z,22.65
2018-08-07T20:05:19.367Z,22.57
2018-08-07T20:07:48.428Z,22.49
2018-08-07T20:10:18.024Z,22.45
2018-08-07T20:12:47.369Z,22.34
2018-08-07T20:15:21.961Z,22.30
2018-08-07T20:17:51.269Z,22.28
2018-08-07T20:20:20.322Z,22.20
2018-08-07T20:22:49.097Z,22.15
2018-08-07T20:25:18.081Z,22.09
2018-08-07T20:27:46.872Z,22.09
2018-08-07T20:30:18.195Z,22.04
2018-08-07T20:32:47.864Z,22.02
2018-08-07T20:35:16.592Z,21.97
2018-08-07T20:37:45.489Z,22.02
2018-08-07T20:40:18.531Z,22.03
2018-08-07T20:42:47.613Z,21.99
2018-08-07T20:45:16.876Z,21.97
2018-08-07T20:47:45.611Z,22.15
2018-08-07T20:50:16.869Z,22.18
2018-08-07T20:52:46.141Z,22.10
2018-08-07T20:55:15.268Z,22.11
2018-08-07T20:57:44.098Z,22.02
2018-08-07T21:00:17.149Z,22.08
2018-08-07T21:02:46.046Z,22.09
2018-08-07T21:05:14.903Z,22.19
2018-08-07T21:07:43.875Z,22.09
2018-08-07T21:10:14.596Z,22.00
2018-08-07T21:12:43.712Z,21.94
2018-08-07T21:15:13.168Z,21.85
2018-08-07T21:17:42.060Z,21.78
2018-08-07T21:20:14.594Z,21.73
2018-08-07T21:22:43.579Z,21.62
2018-08-07T21:25:14.906Z,21.57
2018-08-07T21:27:44.260Z,21.63
2018-08-07T21:30:15.995Z,21.65
2018-08-07T21:32:44.850Z,21.66
2018-08-07T21:35:13.753Z,21.73
2018-08-07T21:37:42.755Z,21.73
2018-08-07T21:40:19.148Z,21.69
2018-08-07T21:42:48.527Z,21.68
2018-08-07T21:45:17.503Z,21.68
2018-08-07T21:47:46.496Z,21.67
2018-08-07T21:50:17.099Z,21.78
2018-08-07T21:52:45.960Z,21.69
2018-08-07T21:55:16.059Z,21.60
2018-08-07T21:57:44.964Z,21.56
2018-08-07T22:00:18.198Z,21.59
2018-08-07T22:02:47.596Z,21.55
2018-08-07T22:05:16.423Z,21.44
2018-08-07T22:07:45.194Z,21.42
2018-08-07T22:10:16.645Z,21.38
2018-08-07T22:12:45.771Z,21.30
2018-08-07T22:15:15.383Z,21.31
2018-08-07T22:17:44.763Z,21.32
2018-08-07T22:20:14.254Z,21.15
2018-08-07T22:22:43.182Z,21.08
2018-08-07T22:25:12.110Z,21.04
2018-08-07T22:27:40.982Z,20.94
2018-08-07T22:30:12.692Z,20.88
2018-08-07T22:32:41.503Z,20.87
2018-08-07T22:35:10.438Z,20.82
2018-08-07T22:37:39.821Z,20.79
2018-08-07T22:40:09.276Z,20.80
2018-08-07T22:42:38.148Z,20.81
2018-08-07T22:45:09.099Z,20.83
2018-08-07T22:47:37.970Z,20.94
2018-08-07T22:50:07.664Z,20.98
2018-08-07T22:52:36.424Z,21.05
2018-08-07T22:55:05.915Z,20.97
2018-08-07T22:57:34.668Z,20.95
2018-08-07T23:00:03.453Z,20.99
2018-08-07T23:02:32.169Z,21.00
2018-08-07T23:05:00.888Z,21.02
2018-08-07T23:07:29.630Z,20.95
2018-08-07T23:09:58.322Z,20.82
2018-08-07T23:12:27.024Z,20.63
2018-08-07T23:14:55.795Z,20.70
2018-08-07T23:17:24.522Z,20.66
2018-08-07T23:19:53.269Z,20.58
2018-08-07T23:22:21.998Z,20.56
2018-08-07T23:24:50.744Z,20.53
2018-08-07T23:27:19.742Z,20.37
2018-08-07T23:29:48.481Z,20.32
2018-08-07T23:32:17.244Z,20.39
2018-08-07T23:34:46.006Z,20.41
2018-08-07T23:37:14.776Z,20.49
2018-08-07T23:39:43.566Z,20.57
2018-08-07T23:42:12.332Z,20.54
2018-08-07T23:44:41.225Z,20.59
2018-08-07T23:47:10.161Z,20.54
2018-08-07T23:49:38.902Z,20.54
2018-08-07T23:52:07.753Z,20.53
2018-08-07T23:54:36.499Z,20.43
2018-08-07T23:57:05.242Z,20.32
2018-08-07T23:59:33.987Z,20.31
